Strona główna
METAR-TAF:

METAR-TAF

Lotnisko :

Port lotniczy Trondheim-Værnes

Trondheim, Norwegia

Szerokość geograficzna: 63-28N, Długość geograficzna: 010-56E, wysokość: 1 m

Aktualna obserwacja pogody

Raport powstał 28 minut temu, godzina 19:50 UTC
Wiatr 8 kt od południowy wschód
Temperatura -10°C
Wilgotność 85%
Ciśnienie 1004 hPa
Widzialność 10 km lub więcej
Brak chmur poniżej 1500 m i brak chmur cumulonimbus

METAR: ENVA 251950Z 13008KT CAVOK M10/M12 Q1004 NOSIG RMK WIND 670FT 00000KT

czas: 21:18 (20:18 UTC)

Prognoza

Prognoza ważna od 25 godzina 18 UTC do 26 godzina 18 UTC
Wiatr 8 kt od wschód
Widzialność 10 km lub więcej
Mało chmury na wysokości 4000 ft
Prawdopodobieństwo 30% :
Przejściowo
od 26 godzina 09 UTC do 26 godzina 18 UTC
Widzialność: 1500 m
na wysokości 700 ft
przelotny opad śniegu

TAF: ENVA 2518/2618 10008KT 9999 FEW040 PROB30 TEMPO 2609/2618 1500 SHSN VV007

Obserwacja i prognoza pogody dla ponad 4000 lotnisk (raport METAR i TAF).

Dostępne stacje oznaczono żółtymi i czerwonymi punktami na mapie.

Najedź kursorem aby zobaczyć nazwę stacji.

Kliknij aby zobaczyć obserwacje i prognozy pogody.

Aby zmienić mapę: kliknij na zielony przycisk z czarnym krzyżykiem, aby powiększyć; na zielony przycisk z myślnikiem, aby pomniejszyć; na zielone strzałki, aby przejść do map sąsiednich.


METAR-TAF: